Time;durP1;ratioP1;P1;durP2;ratioP2;P2;SDS_P1;SDS_P2;PMS_P1;PMS_P2;Temp;Humidity;BMP_temperature;BMP_pressure;BME280_temperature;BME280_humidity;BME280_pressure;Samples;Min_cycle;Max_cycle;Signal;HPM_P1;HPM_P2
2022/04/11 00:02:13;;;;;;;;;0.00;0.00;;;;;;;;2;288085738;288085738;-79
2022/04/11 00:10:29;;;;;;;;;0.00;0.00;;;;;;;;2;261074435;261074435;-79
2022/04/11 00:19:56;;;;;;;;;0.00;0.00;;;;;;;;2;288082859;288082859;-79
2022/04/11 00:28:12;;;;;;;;;0.00;0.00;;;;;;;;2;261076569;261076569;-79
2022/04/11 00:37:40;;;;;;;;;0.00;0.00;;;;;;;;2;288085069;288085069;-79
2022/04/11 00:45:56;;;;;;;;;0.00;0.00;;;;;;;;2;261074561;261074561;-79
2022/04/11 00:55:24;;;;;;;;;0.00;0.00;;;;;;;;2;288085009;288085009;-79
2022/04/11 01:03:40;;;;;;;;;0.00;0.00;;;;;;;;2;261077844;261077844;-79
2022/04/11 01:13:07;;;;;;;;;0.00;0.00;;;;;;;;2;288084680;288084680;-79
2022/04/11 01:21:26;;;;;;;;;0.00;0.00;;;;;;;;2;261077964;261077964;-79
2022/04/11 01:30:54;;;;;;;;;0.00;0.00;;;;;;;;2;288085672;288085672;-78
2022/04/11 01:39:10;;;;;;;;;0.00;0.00;;;;;;;;2;261076208;261076208;-79
2022/04/11 01:48:37;;;;;;;;;0.00;0.00;;;;;;;;2;288083661;288083661;-79
2022/04/11 01:56:53;;;;;;;;;0.00;0.00;;;;;;;;2;261079157;261079157;-79
2022/04/11 02:06:20;;;;;;;;;0.00;0.00;;;;;;;;2;288081451;288081451;-79
2022/04/11 02:14:36;;;;;;;;;0.00;0.00;;;;;;;;2;261080046;261080046;-79
2022/04/11 02:24:03;;;;;;;;;0.00;0.00;;;;;;;;2;288084161;288084161;-79
2022/04/11 02:32:19;;;;;;;;;0.00;0.00;;;;;;;;2;261077428;261077428;-79
2022/04/11 02:41:46;;;;;;;;;0.00;0.00;;;;;;;;2;288085199;288085199;-79
2022/04/11 02:50:02;;;;;;;;;0.00;0.00;;;;;;;;2;261076784;261076784;-79
2022/04/11 02:59:30;;;;;;;;;0.00;0.00;;;;;;;;2;288083285;288083285;-79
2022/04/11 03:07:45;;;;;;;;;0.00;0.00;;;;;;;;2;261076435;261076435;-79
2022/04/11 03:17:13;;;;;;;;;0.00;0.00;;;;;;;;2;288085254;288085254;-79
2022/04/11 03:25:28;;;;;;;;;0.00;0.00;;;;;;;;2;261074664;261074664;-79
2022/04/11 03:34:55;;;;;;;;;0.00;0.00;;;;;;;;2;288083450;288083450;-79
2022/04/11 03:43:11;;;;;;;;;0.00;0.00;;;;;;;;2;261075438;261075438;-77
2022/04/11 03:52:39;;;;;;;;;0.00;0.00;;;;;;;;2;288085079;288085079;-78
2022/04/11 04:00:54;;;;;;;;;0.00;0.00;;;;;;;;2;261076754;261076754;-79
2022/04/11 04:10:26;;;;;;;;;0.00;0.00;;;;;;;;2;288084087;288084087;-77
2022/04/11 04:18:41;;;;;;;;;0.00;0.00;;;;;;;;2;261075429;261075429;-79
2022/04/11 04:28:09;;;;;;;;;0.00;0.00;;;;;;;;2;288081075;288081075;-78
2022/04/11 04:36:24;;;;;;;;;0.00;0.00;;;;;;;;2;261078468;261078468;-79
2022/04/11 04:45:52;;;;;;;;;0.00;0.00;;;;;;;;2;288084623;288084623;-78
2022/04/11 04:54:07;;;;;;;;;0.00;0.00;;;;;;;;2;261077247;261077247;-79
2022/04/11 05:03:34;;;;;;;;;0.00;0.00;;;;;;;;2;288085807;288085807;-79
2022/04/11 05:11:50;;;;;;;;;0.00;0.00;;;;;;;;2;261080284;261080284;-78
2022/04/11 05:21:17;;;;;;;;;0.00;0.00;;;;;;;;2;288083749;288083749;-79
2022/04/11 05:29:33;;;;;;;;;0.00;0.00;;;;;;;;2;261075970;261075970;-79
2022/04/11 05:39:00;;;;;;;;;0.00;0.00;;;;;;;;2;288084152;288084152;-78
2022/04/11 05:47:16;;;;;;;;;0.00;0.00;;;;;;;;2;261078545;261078545;-78
2022/04/11 05:56:43;;;;;;;;;0.00;0.00;;;;;;;;2;288085949;288085949;-78
2022/04/11 06:04:59;;;;;;;;;0.00;0.00;;;;;;;;2;261077255;261077255;-78
2022/04/11 06:14:26;;;;;;;;;0.00;0.00;;;;;;;;2;288080932;288080932;-78
2022/04/11 06:22:42;;;;;;;;;0.00;0.00;;;;;;;;2;261080397;261080397;-78
2022/04/11 06:32:10;;;;;;;;;0.00;0.00;;;;;;;;2;288083964;288083964;-81
2022/04/11 06:40:25;;;;;;;;;0.00;0.00;;;;;;;;2;261078482;261078482;-81
2022/04/11 06:49:53;;;;;;;;;0.00;0.00;;;;;;;;2;288083777;288083777;-81
2022/04/11 06:58:08;;;;;;;;;0.00;0.00;;;;;;;;2;261078821;261078821;-81
2022/04/11 07:07:39;;;;;;;;;0.00;0.00;;;;;;;;2;288085700;288085700;-81
2022/04/11 07:15:54;;;;;;;;;0.00;0.00;;;;;;;;2;261078390;261078390;-79
2022/04/11 07:25:25;;;;;;;;;0.00;0.00;;;;;;;;2;288087730;288087730;-83
2022/04/11 07:33:40;;;;;;;;;0.00;0.00;;;;;;;;2;261078071;261078071;-84
2022/04/11 07:43:08;;;;;;;;;0.00;0.00;;;;;;;;2;288082664;288082664;-81
2022/04/11 07:51:23;;;;;;;;;0.00;0.00;;;;;;;;2;261076703;261076703;-84
2022/04/11 08:00:52;;;;;;;;;0.00;0.00;;;;;;;;2;288089556;288089556;-82
2022/04/11 08:09:07;;;;;;;;;0.00;0.00;;;;;;;;2;261079253;261079253;-80
2022/04/11 08:18:35;;;;;;;;;0.00;0.00;;;;;;;;2;288083784;288083784;-78
2022/04/11 08:26:50;;;;;;;;;0.00;0.00;;;;;;;;2;261076476;261076476;-82
2022/04/11 08:36:19;;;;;;;;;0.00;0.00;;;;;;;;2;288084218;288084218;-81
2022/04/11 08:44:35;;;;;;;;;0.00;0.00;;;;;;;;2;261077582;261077582;-84
2022/04/11 08:54:04;;;;;;;;;0.00;0.00;;;;;;;;2;288083937;288083937;-82
2022/04/11 09:02:29;;;;;;;;;0.00;0.00;;;;;;;;2;261079536;261079536;-82
2022/04/11 09:11:57;;;;;;;;;0.00;0.00;;;;;;;;2;288085709;288085709;-81
2022/04/11 09:20:13;;;;;;;;;0.00;0.00;;;;;;;;2;261078249;261078249;-82
2022/04/11 09:29:42;;;;;;;;;0.00;0.00;;;;;;;;2;288087479;288087479;-79
2022/04/11 09:38:16;;;;;;;;;0.00;0.00;;;;;;;;2;261078647;261078647;-77
2022/04/11 09:48:00;;;;;;;;;0.00;0.00;;;;;;;;2;288084650;288084650;-78
2022/04/11 09:56:16;;;;;;;;;0.00;0.00;;;;;;;;2;261076888;261076888;-78
2022/04/11 10:05:43;;;;;;;;;0.00;0.00;;;;;;;;2;288088222;288088222;-80
2022/04/11 10:13:59;;;;;;;;;0.00;0.00;;;;;;;;2;261075327;261075327;-90
2022/04/11 10:23:30;;;;;;;;;0.00;0.00;;;;;;;;2;288084723;288084723;-90
2022/04/11 10:31:46;;;;;;;;;0.00;0.00;;;;;;;;2;261073488;261073488;-81
2022/04/11 10:41:14;;;;;;;;;0.00;0.00;;;;;;;;2;288083928;288083928;-81
2022/04/11 10:49:30;;;;;;;;;0.00;0.00;;;;;;;;2;261075582;261075582;-80
2022/04/11 10:58:57;;;;;;;;;0.00;0.00;;;;;;;;2;288082370;288082370;-81
2022/04/11 11:07:26;;;;;;;;;0.00;0.00;;;;;;;;2;261074466;261074466;-81
2022/04/11 11:16:58;;;;;;;;;0.00;0.00;;;;;;;;2;288085435;288085435;-82
2022/04/11 11:25:17;;;;;;;;;0.00;0.00;;;;;;;;2;261078695;261078695;-81
2022/04/11 11:34:45;;;;;;;;;0.00;0.00;;;;;;;;2;288083127;288083127;-82
2022/04/11 11:43:00;;;;;;;;;0.00;0.00;;;;;;;;2;261077861;261077861;-82
2022/04/11 11:52:28;;;;;;;;;0.00;0.00;;;;;;;;2;288082053;288082053;-83
2022/04/11 12:00:47;;;;;;;;;0.00;0.00;;;;;;;;2;261076246;261076246;-83
2022/04/11 12:10:15;;;;;;;;;0.00;0.00;;;;;;;;2;288085164;288085164;-84
2022/04/11 12:18:45;;;;;;;;;0.00;0.00;;;;;;;;2;261079062;261079062;-86
2022/04/11 12:28:19;;;;;;;;;0.00;0.00;;;;;;;;2;288084874;288084874;-86
2022/04/11 12:36:34;;;;;;;;;0.00;0.00;;;;;;;;2;261077441;261077441;-87
2022/04/11 12:46:06;;;;;;;;;0.00;0.00;;;;;;;;2;288081061;288081061;-88
2022/04/11 12:54:21;;;;;;;;;0.00;0.00;;;;;;;;2;261077852;261077852;-87
2022/04/11 13:03:49;;;;;;;;;0.00;0.00;;;;;;;;2;288083581;288083581;-77
2022/04/11 13:12:08;;;;;;;;;0.00;0.00;;;;;;;;2;261076592;261076592;-72
2022/04/11 13:21:36;;;;;;;;;0.00;0.00;;;;;;;;2;288085372;288085372;-73
2022/04/11 13:29:52;;;;;;;;;0.00;0.00;;;;;;;;2;261077338;261077338;-73
2022/04/11 13:39:19;;;;;;;;;0.00;0.00;;;;;;;;2;288087139;288087139;-73
2022/04/11 13:47:35;;;;;;;;;0.00;0.00;;;;;;;;2;261080518;261080518;-73
2022/04/11 13:57:04;;;;;;;;;0.00;0.00;;;;;;;;2;288085060;288085060;-73
2022/04/11 14:05:19;;;;;;;;;0.00;0.00;;;;;;;;2;261075825;261075825;-74
2022/04/11 14:14:47;;;;;;;;;0.00;0.00;;;;;;;;2;288084999;288084999;-73
2022/04/11 14:23:02;;;;;;;;;0.00;0.00;;;;;;;;2;261077107;261077107;-76
2022/04/11 14:32:30;;;;;;;;;0.00;0.00;;;;;;;;2;288084670;288084670;-76
2022/04/11 14:40:45;;;;;;;;;0.00;0.00;;;;;;;;2;261077155;261077155;-73
2022/04/11 14:50:13;;;;;;;;;0.00;0.00;;;;;;;;2;288086271;288086271;-73
2022/04/11 14:58:28;;;;;;;;;0.00;0.00;;;;;;;;2;261078088;261078088;-73
2022/04/11 15:07:59;;;;;;;;;0.00;0.00;;;;;;;;2;288086835;288086835;-74
2022/04/11 15:16:15;;;;;;;;;0.00;0.00;;;;;;;;2;261077319;261077319;-74
2022/04/11 15:25:43;;;;;;;;;0.00;0.00;;;;;;;;2;288085220;288085220;-74
2022/04/11 15:34:00;;;;;;;;;0.00;0.00;;;;;;;;2;261076430;261076430;-73
2022/04/11 15:43:28;;;;;;;;;0.00;0.00;;;;;;;;2;288083878;288083878;-73
2022/04/11 15:51:44;;;;;;;;;0.00;0.00;;;;;;;;2;261077511;261077511;-73
2022/04/11 16:01:12;;;;;;;;;0.00;0.00;;;;;;;;2;288080514;288080514;-73
2022/04/11 16:09:28;;;;;;;;;0.00;0.00;;;;;;;;2;261082412;261082412;-74
2022/04/11 16:18:55;;;;;;;;;0.00;0.00;;;;;;;;2;288086797;288086797;-76
2022/04/11 16:27:11;;;;;;;;;0.00;0.00;;;;;;;;2;261081305;261081305;-73
2022/04/11 16:36:39;;;;;;;;;0.00;0.00;;;;;;;;2;288082649;288082649;-74
2022/04/11 16:44:54;;;;;;;;;0.00;0.00;;;;;;;;2;261079202;261079202;-74
2022/04/11 16:54:22;;;;;;;;;0.00;0.00;;;;;;;;2;288083597;288083597;-76
2022/04/11 17:02:37;;;;;;;;;0.00;0.00;;;;;;;;2;261080450;261080450;-76
2022/04/11 17:12:05;;;;;;;;;0.00;0.00;;;;;;;;2;288085321;288085321;-77
2022/04/11 17:20:21;;;;;;;;;0.00;0.00;;;;;;;;2;261076041;261076041;-78
2022/04/11 17:29:48;;;;;;;;;0.00;0.00;;;;;;;;2;288084437;288084437;-76
2022/04/11 17:38:04;;;;;;;;;0.00;0.00;;;;;;;;2;261077293;261077293;-74
2022/04/11 17:47:31;;;;;;;;;0.00;0.00;;;;;;;;2;288085188;288085188;-78
2022/04/11 17:55:47;;;;;;;;;0.00;0.00;;;;;;;;2;261074788;261074788;-77
2022/04/11 18:05:15;;;;;;;;;0.00;0.00;;;;;;;;2;288086206;288086206;-76
2022/04/11 18:13:31;;;;;;;;;0.00;0.00;;;;;;;;2;261079765;261079765;-76
2022/04/11 18:22:59;;;;;;;;;0.00;0.00;;;;;;;;2;288084176;288084176;-77
2022/04/11 18:31:32;;;;;;;;;0.00;0.00;;;;;;;;2;261078723;261078723;-78
2022/04/11 18:41:00;;;;;;;;;0.00;0.00;;;;;;;;2;288086472;288086472;-78
2022/04/11 18:49:15;;;;;;;;;0.00;0.00;;;;;;;;2;261074059;261074059;-79
2022/04/11 18:58:43;;;;;;;;;0.00;0.00;;;;;;;;2;288082758;288082758;-79
2022/04/11 19:06:59;;;;;;;;;0.00;0.00;;;;;;;;2;261077309;261077309;-78
2022/04/11 19:16:26;;;;;;;;;0.00;0.00;;;;;;;;2;288085056;288085056;-79
2022/04/11 19:28:01;;;;;;;;;0.00;0.00;;;;;;;;2;261077781;261077781;-78
2022/04/11 19:37:29;;;;;;;;;0.00;0.00;;;;;;;;2;288085327;288085327;-80
2022/04/11 19:45:45;;;;;;;;;0.00;0.00;;;;;;;;2;261095558;261095558;-81
2022/04/11 19:55:12;;;;;;;;;0.00;0.00;;;;;;;;2;288085823;288085823;-81
2022/04/11 20:03:28;;;;;;;;;0.00;0.00;;;;;;;;2;261075277;261075277;-80
2022/04/11 20:12:56;;;;;;;;;0.00;0.00;;;;;;;;2;288083393;288083393;-79
2022/04/11 20:21:11;;;;;;;;;0.00;0.00;;;;;;;;2;261076838;261076838;-80
2022/04/11 20:30:39;;;;;;;;;0.00;0.00;;;;;;;;2;288085199;288085199;-79
2022/04/11 20:38:55;;;;;;;;;0.00;0.00;;;;;;;;2;261077266;261077266;-80
2022/04/11 20:48:23;;;;;;;;;0.00;0.00;;;;;;;;2;288084025;288084025;-80
2022/04/11 20:56:39;;;;;;;;;0.00;0.00;;;;;;;;2;261076352;261076352;-80
2022/04/11 21:06:06;;;;;;;;;0.00;0.00;;;;;;;;2;288082899;288082899;-79
2022/04/11 21:14:22;;;;;;;;;0.00;0.00;;;;;;;;2;261078006;261078006;-81
2022/04/11 21:23:49;;;;;;;;;0.00;0.00;;;;;;;;2;288086498;288086498;-81
2022/04/11 21:32:08;;;;;;;;;0.00;0.00;;;;;;;;2;261078386;261078386;-82
2022/04/11 21:41:36;;;;;;;;;0.00;0.00;;;;;;;;2;288084132;288084132;-80
2022/04/11 21:49:51;;;;;;;;;0.00;0.00;;;;;;;;2;261077150;261077150;-81
2022/04/11 21:59:19;;;;;;;;;0.00;0.00;;;;;;;;2;288086149;288086149;-81
2022/04/11 22:07:34;;;;;;;;;0.00;0.00;;;;;;;;2;261075945;261075945;-81
2022/04/11 22:17:03;;;;;;;;;0.00;0.00;;;;;;;;2;288084276;288084276;-81
2022/04/11 22:25:19;;;;;;;;;0.00;0.00;;;;;;;;2;261075406;261075406;-80
2022/04/11 22:34:46;;;;;;;;;0.00;0.00;;;;;;;;2;288083815;288083815;-79
2022/04/11 22:43:02;;;;;;;;;0.00;0.00;;;;;;;;2;261078698;261078698;-80
2022/04/11 22:52:29;;;;;;;;;0.00;0.00;;;;;;;;2;288085289;288085289;-79
2022/04/11 23:00:45;;;;;;;;;0.00;0.00;;;;;;;;2;261080985;261080985;-79
2022/04/11 23:10:12;;;;;;;;;0.00;0.00;;;;;;;;2;288082766;288082766;-79
2022/04/11 23:18:28;;;;;;;;;0.00;0.00;;;;;;;;2;261077366;261077366;-79
2022/04/11 23:27:55;;;;;;;;;0.00;0.00;;;;;;;;2;288082178;288082178;-80
2022/04/11 23:36:11;;;;;;;;;0.00;0.00;;;;;;;;2;261075532;261075532;-79
2022/04/11 23:45:38;;;;;;;;;0.00;0.00;;;;;;;;2;288086124;288086124;-80
2022/04/11 23:53:54;;;;;;;;;0.00;0.00;;;;;;;;2;261076033;261076033;-80
